sensor_id;sensor_type;location;lat;lon;timestamp;pressure;altitude;pressure_sealevel;temperature;humidity
14689;BME280;7432;48.728;9.154;2022-11-03T00:02:15;97020.91;;;6.79;99.91
14689;BME280;7432;48.728;9.154;2022-11-03T00:04:41;97017.28;;;6.82;99.77
14689;BME280;7432;48.728;9.154;2022-11-03T00:07:08;97024.63;;;6.75;99.92
14689;BME280;7432;48.728;9.154;2022-11-03T00:09:35;97019.91;;;6.71;100.00
14689;BME280;7432;48.728;9.154;2022-11-03T00:12:01;97022.88;;;6.76;99.94
14689;BME280;7432;48.728;9.154;2022-11-03T00:14:28;97017.19;;;6.72;100.00
14689;BME280;7432;48.728;9.154;2022-11-03T00:16:55;97014.19;;;6.67;100.00
14689;BME280;7432;48.728;9.154;2022-11-03T00:19:22;97003.63;;;6.72;100.00
14689;BME280;7432;48.728;9.154;2022-11-03T00:21:48;96999.81;;;6.66;100.00
14689;BME280;7432;48.728;9.154;2022-11-03T00:24:15;96998.53;;;6.61;100.00
14689;BME280;7432;48.728;9.154;2022-11-03T00:26:41;97000.91;;;6.52;100.00
14689;BME280;7432;48.728;9.154;2022-11-03T00:29:10;97002.03;;;6.60;100.00
14689;BME280;7432;48.728;9.154;2022-11-03T00:31:38;97005.66;;;6.57;99.98
14689;BME280;7432;48.728;9.154;2022-11-03T00:34:06;97006.13;;;6.51;100.00
14689;BME280;7432;48.728;9.154;2022-11-03T00:36:34;96994.97;;;6.52;100.00
14689;BME280;7432;48.728;9.154;2022-11-03T00:39:02;96990.53;;;6.54;100.00
14689;BME280;7432;48.728;9.154;2022-11-03T00:41:28;96982.75;;;6.55;99.96
14689;BME280;7432;48.728;9.154;2022-11-03T00:43:55;96980.31;;;6.54;100.00
14689;BME280;7432;48.728;9.154;2022-11-03T00:46:23;96970.13;;;6.43;100.00
14689;BME280;7432;48.728;9.154;2022-11-03T00:48:50;96974.88;;;6.47;99.59
14689;BME280;7432;48.728;9.154;2022-11-03T00:51:19;96970.56;;;6.48;100.00
14689;BME280;7432;48.728;9.154;2022-11-03T00:53:48;96963.94;;;6.45;99.58
14689;BME280;7432;48.728;9.154;2022-11-03T00:56:17;96962.69;;;6.40;100.00
14689;BME280;7432;48.728;9.154;2022-11-03T00:58:44;96952.59;;;6.38;100.00
14689;BME280;7432;48.728;9.154;2022-11-03T01:01:12;96946.91;;;6.35;100.00
14689;BME280;7432;48.728;9.154;2022-11-03T01:03:41;96956.44;;;6.33;100.00
14689;BME280;7432;48.728;9.154;2022-11-03T01:06:30;96958.56;;;6.28;100.00
14689;BME280;7432;48.728;9.154;2022-11-03T01:09:14;96960.16;;;6.29;99.82
14689;BME280;7432;48.728;9.154;2022-11-03T01:11:41;96945.22;;;6.24;99.91
14689;BME280;7432;48.728;9.154;2022-11-03T01:14:13;96946.31;;;6.11;100.00
14689;BME280;7432;48.728;9.154;2022-11-03T01:16:39;96946.63;;;6.17;99.92
14689;BME280;7432;48.728;9.154;2022-11-03T01:19:06;96940.13;;;6.13;99.25
14689;BME280;7432;48.728;9.154;2022-11-03T01:21:34;96932.59;;;6.12;99.54
14689;BME280;7432;48.728;9.154;2022-11-03T01:24:02;96930.03;;;6.12;99.65
14689;BME280;7432;48.728;9.154;2022-11-03T01:26:29;96931.91;;;5.98;99.96
14689;BME280;7432;48.728;9.154;2022-11-03T01:28:57;96933.56;;;6.00;99.91
14689;BME280;7432;48.728;9.154;2022-11-03T01:31:25;96932.53;;;5.91;99.40
14689;BME280;7432;48.728;9.154;2022-11-03T01:33:53;96924.38;;;5.97;100.00
14689;BME280;7432;48.728;9.154;2022-11-03T01:36:20;96921.38;;;5.92;99.91
14689;BME280;7432;48.728;9.154;2022-11-03T01:38:48;96921.72;;;5.87;99.84
14689;BME280;7432;48.728;9.154;2022-11-03T01:41:16;96916.28;;;5.81;99.54
14689;BME280;7432;48.728;9.154;2022-11-03T01:43:45;96909.75;;;5.88;99.98
14689;BME280;7432;48.728;9.154;2022-11-03T01:46:16;96887.97;;;5.73;100.00
14689;BME280;7432;48.728;9.154;2022-11-03T01:48:45;96900.81;;;5.82;99.65
14689;BME280;7432;48.728;9.154;2022-11-03T01:51:15;96904.78;;;5.75;100.00
14689;BME280;7432;48.728;9.154;2022-11-03T01:53:44;96898.38;;;5.81;100.00
14689;BME280;7432;48.728;9.154;2022-11-03T01:56:14;96900.94;;;5.81;99.72
14689;BME280;7432;48.728;9.154;2022-11-03T01:58:42;96890.59;;;5.82;100.00
14689;BME280;7432;48.728;9.154;2022-11-03T02:01:11;96887.09;;;5.83;99.75
14689;BME280;7432;48.728;9.154;2022-11-03T02:03:40;96879.25;;;5.75;100.00
14689;BME280;7432;48.728;9.154;2022-11-03T02:06:08;96887.34;;;5.80;100.00
14689;BME280;7432;48.728;9.154;2022-11-03T02:08:37;96881.31;;;5.81;100.00
14689;BME280;7432;48.728;9.154;2022-11-03T02:11:06;96889.22;;;5.78;100.00
14689;BME280;7432;48.728;9.154;2022-11-03T02:13:48;96883.88;;;5.81;100.00
14689;BME280;7432;48.728;9.154;2022-11-03T02:16:15;96882.59;;;5.87;100.00
14689;BME280;7432;48.728;9.154;2022-11-03T02:18:42;96882.72;;;5.85;100.00
14689;BME280;7432;48.728;9.154;2022-11-03T02:21:16;96881.91;;;5.85;100.00
14689;BME280;7432;48.728;9.154;2022-11-03T02:23:48;96876.88;;;5.83;100.00
14689;BME280;7432;48.728;9.154;2022-11-03T02:26:19;96882.00;;;5.83;100.00
14689;BME280;7432;48.728;9.154;2022-11-03T02:28:45;96863.28;;;5.83;100.00
14689;BME280;7432;48.728;9.154;2022-11-03T02:31:15;96862.28;;;5.85;100.00
14689;BME280;7432;48.728;9.154;2022-11-03T02:33:47;96867.47;;;5.84;100.00
14689;BME280;7432;48.728;9.154;2022-11-03T02:36:19;96860.53;;;5.86;100.00
14689;BME280;7432;48.728;9.154;2022-11-03T02:38:53;96843.00;;;5.81;100.00
14689;BME280;7432;48.728;9.154;2022-11-03T02:41:23;96858.19;;;5.83;100.00
14689;BME280;7432;48.728;9.154;2022-11-03T02:43:51;96848.69;;;5.85;100.00
14689;BME280;7432;48.728;9.154;2022-11-03T02:46:22;96839.28;;;5.85;100.00
14689;BME280;7432;48.728;9.154;2022-11-03T02:48:49;96848.19;;;5.91;100.00
14689;BME280;7432;48.728;9.154;2022-11-03T02:51:16;96843.53;;;5.96;100.00
14689;BME280;7432;48.728;9.154;2022-11-03T02:53:45;96833.28;;;5.96;100.00
14689;BME280;7432;48.728;9.154;2022-11-03T02:56:17;96824.56;;;5.98;100.00
14689;BME280;7432;48.728;9.154;2022-11-03T02:58:51;96819.22;;;6.02;100.00
14689;BME280;7432;48.728;9.154;2022-11-03T03:01:24;96821.91;;;6.00;100.00
14689;BME280;7432;48.728;9.154;2022-11-03T03:03:57;96817.19;;;5.95;100.00
14689;BME280;7432;48.728;9.154;2022-11-03T03:06:28;96809.50;;;5.95;100.00
14689;BME280;7432;48.728;9.154;2022-11-03T03:08:58;96804.66;;;5.92;100.00
14689;BME280;7432;48.728;9.154;2022-11-03T03:11:25;96799.88;;;5.88;100.00
14689;BME280;7432;48.728;9.154;2022-11-03T03:14:11;96800.47;;;5.80;100.00
14689;BME280;7432;48.728;9.154;2022-11-03T03:16:47;96795.75;;;5.76;100.00
14689;BME280;7432;48.728;9.154;2022-11-03T03:19:22;96791.69;;;5.73;100.00
14689;BME280;7432;48.728;9.154;2022-11-03T03:21:53;96788.19;;;5.74;100.00
14689;BME280;7432;48.728;9.154;2022-11-03T03:24:29;96790.97;;;5.71;100.00
14689;BME280;7432;48.728;9.154;2022-11-03T03:26:57;96786.81;;;5.70;100.00
14689;BME280;7432;48.728;9.154;2022-11-03T03:29:28;96776.84;;;5.67;100.00
14689;BME280;7432;48.728;9.154;2022-11-03T03:31:59;96774.06;;;5.70;100.00
14689;BME280;7432;48.728;9.154;2022-11-03T03:34:29;96776.38;;;5.73;100.00
14689;BME280;7432;48.728;9.154;2022-11-03T03:36:58;96772.03;;;5.74;100.00
14689;BME280;7432;48.728;9.154;2022-11-03T03:39:27;96766.81;;;5.75;100.00
14689;BME280;7432;48.728;9.154;2022-11-03T03:41:56;96768.88;;;5.81;100.00
14689;BME280;7432;48.728;9.154;2022-11-03T03:44:24;96764.34;;;5.85;100.00
14689;BME280;7432;48.728;9.154;2022-11-03T03:46:57;96754.13;;;5.85;100.00
14689;BME280;7432;48.728;9.154;2022-11-03T03:49:24;96751.22;;;5.89;100.00
14689;BME280;7432;48.728;9.154;2022-11-03T03:51:51;96749.19;;;5.93;100.00
14689;BME280;7432;48.728;9.154;2022-11-03T03:54:18;96743.41;;;5.91;100.00
14689;BME280;7432;48.728;9.154;2022-11-03T03:56:50;96728.91;;;5.91;100.00
14689;BME280;7432;48.728;9.154;2022-11-03T03:59:17;96730.31;;;5.84;100.00
14689;BME280;7432;48.728;9.154;2022-11-03T04:01:44;96736.13;;;5.86;100.00
14689;BME280;7432;48.728;9.154;2022-11-03T04:04:11;96725.69;;;5.78;100.00
14689;BME280;7432;48.728;9.154;2022-11-03T04:06:38;96723.19;;;5.67;100.00
14689;BME280;7432;48.728;9.154;2022-11-03T04:09:04;96714.28;;;5.62;100.00
14689;BME280;7432;48.728;9.154;2022-11-03T04:11:30;96714.28;;;5.62;100.00
14689;BME280;7432;48.728;9.154;2022-11-03T04:14:14;96713.47;;;5.61;100.00
14689;BME280;7432;48.728;9.154;2022-11-03T04:16:59;96702.81;;;5.56;100.00
14689;BME280;7432;48.728;9.154;2022-11-03T04:19:44;96706.69;;;5.51;100.00
14689;BME280;7432;48.728;9.154;2022-11-03T04:22:31;96713.97;;;5.55;100.00
14689;BME280;7432;48.728;9.154;2022-11-03T04:24:58;96709.25;;;5.51;100.00
14689;BME280;7432;48.728;9.154;2022-11-03T04:27:28;96700.38;;;5.55;100.00
14689;BME280;7432;48.728;9.154;2022-11-03T04:29:56;96690.16;;;5.55;100.00
14689;BME280;7432;48.728;9.154;2022-11-03T04:32:23;96690.69;;;5.49;100.00
14689;BME280;7432;48.728;9.154;2022-11-03T04:34:52;96697.38;;;5.50;100.00
14689;BME280;7432;48.728;9.154;2022-11-03T04:37:19;96688.66;;;5.52;100.00
14689;BME280;7432;48.728;9.154;2022-11-03T04:39:45;96688.41;;;5.55;100.00
14689;BME280;7432;48.728;9.154;2022-11-03T04:42:14;96688.56;;;5.54;100.00
14689;BME280;7432;48.728;9.154;2022-11-03T04:44:42;96689.72;;;5.50;100.00
14689;BME280;7432;48.728;9.154;2022-11-03T04:47:11;96677.28;;;5.56;100.00
14689;BME280;7432;48.728;9.154;2022-11-03T04:49:37;96672.09;;;5.47;100.00
14689;BME280;7432;48.728;9.154;2022-11-03T04:52:10;96675.03;;;5.42;100.00
14689;BME280;7432;48.728;9.154;2022-11-03T04:54:40;96680.28;;;5.41;100.00
14689;BME280;7432;48.728;9.154;2022-11-03T04:57:09;96677.00;;;5.38;100.00
14689;BME280;7432;48.728;9.154;2022-11-03T04:59:36;96667.38;;;5.42;100.00
14689;BME280;7432;48.728;9.154;2022-11-03T05:02:08;96666.94;;;5.37;100.00
14689;BME280;7432;48.728;9.154;2022-11-03T05:04:36;96662.91;;;5.34;100.00
14689;BME280;7432;48.728;9.154;2022-11-03T05:07:16;96665.56;;;5.33;100.00
14689;BME280;7432;48.728;9.154;2022-11-03T05:09:47;96660.44;;;5.33;100.00
14689;BME280;7432;48.728;9.154;2022-11-03T05:12:14;96656.91;;;5.24;100.00
14689;BME280;7432;48.728;9.154;2022-11-03T05:14:41;96657.59;;;5.26;100.00
14689;BME280;7432;48.728;9.154;2022-11-03T05:17:17;96645.75;;;5.25;100.00
14689;BME280;7432;48.728;9.154;2022-11-03T05:19:44;96642.53;;;5.23;100.00
14689;BME280;7432;48.728;9.154;2022-11-03T05:22:15;96636.16;;;5.18;100.00
14689;BME280;7432;48.728;9.154;2022-11-03T05:24:42;96634.25;;;5.10;100.00
14689;BME280;7432;48.728;9.154;2022-11-03T05:27:11;96633.19;;;5.13;100.00
14689;BME280;7432;48.728;9.154;2022-11-03T05:29:41;96622.97;;;5.13;100.00
14689;BME280;7432;48.728;9.154;2022-11-03T05:32:10;96623.47;;;5.07;100.00
14689;BME280;7432;48.728;9.154;2022-11-03T05:34:41;96621.22;;;5.13;100.00
14689;BME280;7432;48.728;9.154;2022-11-03T05:37:23;96621.97;;;5.04;100.00
14689;BME280;7432;48.728;9.154;2022-11-03T05:39:51;96625.53;;;5.13;100.00
14689;BME280;7432;48.728;9.154;2022-11-03T05:42:30;96621.00;;;5.16;100.00
14689;BME280;7432;48.728;9.154;2022-11-03T05:44:57;96611.75;;;5.04;100.00
14689;BME280;7432;48.728;9.154;2022-11-03T05:47:27;96600.16;;;5.00;100.00
14689;BME280;7432;48.728;9.154;2022-11-03T05:49:59;96594.28;;;5.00;100.00
14689;BME280;7432;48.728;9.154;2022-11-03T05:52:28;96595.88;;;5.01;100.00
14689;BME280;7432;48.728;9.154;2022-11-03T05:54:57;96594.47;;;5.08;100.00
14689;BME280;7432;48.728;9.154;2022-11-03T05:57:26;96586.34;;;5.03;100.00
14689;BME280;7432;48.728;9.154;2022-11-03T05:59:54;96594.94;;;5.02;100.00
14689;BME280;7432;48.728;9.154;2022-11-03T06:02:32;96590.53;;;5.04;100.00
14689;BME280;7432;48.728;9.154;2022-11-03T06:05:01;96594.56;;;5.06;100.00
14689;BME280;7432;48.728;9.154;2022-11-03T06:07:30;96578.69;;;5.03;100.00
14689;BME280;7432;48.728;9.154;2022-11-03T06:09:57;96583.00;;;5.02;100.00
14689;BME280;7432;48.728;9.154;2022-11-03T06:12:24;96582.50;;;5.08;100.00
14689;BME280;7432;48.728;9.154;2022-11-03T06:14:51;96574.34;;;5.14;100.00
14689;BME280;7432;48.728;9.154;2022-11-03T06:17:21;96580.25;;;5.15;99.79
14689;BME280;7432;48.728;9.154;2022-11-03T06:19:49;96556.78;;;5.00;100.00
14689;BME280;7432;48.728;9.154;2022-11-03T06:22:20;96560.47;;;5.07;100.00
14689;BME280;7432;48.728;9.154;2022-11-03T06:24:49;96554.06;;;5.13;100.00
14689;BME280;7432;48.728;9.154;2022-11-03T06:27:19;96554.16;;;5.11;100.00
14689;BME280;7432;48.728;9.154;2022-11-03T06:29:49;96552.31;;;5.13;100.00
14689;BME280;7432;48.728;9.154;2022-11-03T06:32:17;96543.84;;;5.13;99.82
14689;BME280;7432;48.728;9.154;2022-11-03T06:34:45;96546.66;;;5.10;99.67
14689;BME280;7432;48.728;9.154;2022-11-03T06:37:18;96541.13;;;5.05;99.76
14689;BME280;7432;48.728;9.154;2022-11-03T06:39:45;96557.84;;;5.18;100.00
14689;BME280;7432;48.728;9.154;2022-11-03T06:42:15;96560.34;;;5.29;99.58
14689;BME280;7432;48.728;9.154;2022-11-03T06:44:43;96564.81;;;5.37;99.56
14689;BME280;7432;48.728;9.154;2022-11-03T06:47:19;96556.00;;;5.51;99.33
14689;BME280;7432;48.728;9.154;2022-11-03T06:49:47;96561.03;;;5.62;99.38
14689;BME280;7432;48.728;9.154;2022-11-03T06:52:24;96563.53;;;5.82;99.15
14689;BME280;7432;48.728;9.154;2022-11-03T06:54:54;96556.06;;;5.90;98.98
14689;BME280;7432;48.728;9.154;2022-11-03T06:57:25;96554.09;;;6.04;98.99
14689;BME280;7432;48.728;9.154;2022-11-03T06:59:54;96551.84;;;6.20;99.94
14689;BME280;7432;48.728;9.154;2022-11-03T07:02:37;96553.75;;;6.37;99.37
14689;BME280;7432;48.728;9.154;2022-11-03T07:05:17;96548.63;;;6.56;99.46
14689;BME280;7432;48.728;9.154;2022-11-03T07:07:45;96548.41;;;6.69;98.38
14689;BME280;7432;48.728;9.154;2022-11-03T07:10:12;96537.75;;;6.83;98.55
14689;BME280;7432;48.728;9.154;2022-11-03T07:12:41;96542.44;;;7.06;98.45
14689;BME280;7432;48.728;9.154;2022-11-03T07:15:18;96525.84;;;7.20;97.89
14689;BME280;7432;48.728;9.154;2022-11-03T07:17:45;96521.69;;;7.46;96.86
14689;BME280;7432;48.728;9.154;2022-11-03T07:20:13;96520.34;;;7.79;96.55
14689;BME280;7432;48.728;9.154;2022-11-03T07:22:41;96510.63;;;8.10;95.14
14689;BME280;7432;48.728;9.154;2022-11-03T07:25:13;96518.16;;;8.39;94.10
14689;BME280;7432;48.728;9.154;2022-11-03T07:27:42;96517.00;;;8.68;92.93
14689;BME280;7432;48.728;9.154;2022-11-03T07:30:15;96518.75;;;9.63;91.65
14689;BME280;7432;48.728;9.154;2022-11-03T07:32:43;96520.53;;;11.02;86.58
14689;BME280;7432;48.728;9.154;2022-11-03T07:35:23;96517.66;;;12.46;78.77
14689;BME280;7432;48.728;9.154;2022-11-03T07:37:51;96516.63;;;13.38;72.35
14689;BME280;7432;48.728;9.154;2022-11-03T07:40:21;96521.34;;;14.07;69.24
14689;BME280;7432;48.728;9.154;2022-11-03T07:42:50;96528.03;;;14.31;67.39
14689;BME280;7432;48.728;9.154;2022-11-03T07:45:36;96519.72;;;14.36;65.87
14689;BME280;7432;48.728;9.154;2022-11-03T07:48:13;96522.94;;;14.38;66.14
14689;BME280;7432;48.728;9.154;2022-11-03T07:50:43;96514.75;;;14.55;65.89
14689;BME280;7432;48.728;9.154;2022-11-03T07:53:13;96515.75;;;14.75;65.28
14689;BME280;7432;48.728;9.154;2022-11-03T07:55:43;96511.19;;;14.77;63.69
14689;BME280;7432;48.728;9.154;2022-11-03T07:58:20;96515.88;;;14.89;64.17
14689;BME280;7432;48.728;9.154;2022-11-03T08:00:47;96504.22;;;14.99;63.64
14689;BME280;7432;48.728;9.154;2022-11-03T08:03:23;96498.94;;;14.93;63.13
14689;BME280;7432;48.728;9.154;2022-11-03T08:05:51;96498.47;;;14.61;64.45
14689;BME280;7432;48.728;9.154;2022-11-03T08:08:17;96494.41;;;14.02;65.83
14689;BME280;7432;48.728;9.154;2022-11-03T08:10:44;96487.41;;;13.52;67.55
14689;BME280;7432;48.728;9.154;2022-11-03T08:13:10;96478.47;;;13.40;69.00
14689;BME280;7432;48.728;9.154;2022-11-03T08:15:38;96475.06;;;13.39;69.48
14689;BME280;7432;48.728;9.154;2022-11-03T08:18:04;96468.44;;;13.66;69.05
14689;BME280;7432;48.728;9.154;2022-11-03T08:20:31;96466.34;;;14.20;67.34
14689;BME280;7432;48.728;9.154;2022-11-03T08:22:57;96452.38;;;14.57;65.82
14689;BME280;7432;48.728;9.154;2022-11-03T08:25:23;96449.16;;;14.55;64.62
14689;BME280;7432;48.728;9.154;2022-11-03T08:27:50;96449.78;;;14.21;63.89
14689;BME280;7432;48.728;9.154;2022-11-03T08:30:16;96442.31;;;14.11;65.97
14689;BME280;7432;48.728;9.154;2022-11-03T08:32:44;96441.28;;;14.06;66.26
14689;BME280;7432;48.728;9.154;2022-11-03T08:35:10;96441.25;;;13.85;68.07
14689;BME280;7432;48.728;9.154;2022-11-03T08:37:37;96443.03;;;13.70;68.75
14689;BME280;7432;48.728;9.154;2022-11-03T08:40:04;96434.28;;;13.71;69.92
14689;BME280;7432;48.728;9.154;2022-11-03T08:42:31;96428.50;;;13.54;69.13
14689;BME280;7432;48.728;9.154;2022-11-03T08:44:57;96432.09;;;13.38;69.68
14689;BME280;7432;48.728;9.154;2022-11-03T08:47:24;96425.94;;;13.25;69.88
14689;BME280;7432;48.728;9.154;2022-11-03T08:49:52;96428.00;;;13.06;70.53
14689;BME280;7432;48.728;9.154;2022-11-03T08:52:18;96419.91;;;12.95;71.74
14689;BME280;7432;48.728;9.154;2022-11-03T08:54:45;96422.28;;;12.82;71.63
14689;BME280;7432;48.728;9.154;2022-11-03T08:57:12;96413.56;;;12.83;72.23
14689;BME280;7432;48.728;9.154;2022-11-03T08:59:38;96414.88;;;12.79;72.75
14689;BME280;7432;48.728;9.154;2022-11-03T09:02:06;96410.09;;;12.90;72.23
14689;BME280;7432;48.728;9.154;2022-11-03T09:04:32;96408.50;;;12.89;72.75
14689;BME280;7432;48.728;9.154;2022-11-03T09:07:00;96405.00;;;12.82;72.52
14689;BME280;7432;48.728;9.154;2022-11-03T09:09:26;96404.84;;;12.84;72.43
14689;BME280;7432;48.728;9.154;2022-11-03T09:11:52;96407.50;;;12.90;72.40
14689;BME280;7432;48.728;9.154;2022-11-03T09:14:19;96406.91;;;12.66;72.67
14689;BME280;7432;48.728;9.154;2022-11-03T09:16:45;96413.38;;;12.47;72.24
14689;BME280;7432;48.728;9.154;2022-11-03T09:19:12;96411.19;;;12.59;72.77
14689;BME280;7432;48.728;9.154;2022-11-03T09:21:38;96403.94;;;12.54;72.37
14689;BME280;7432;48.728;9.154;2022-11-03T09:24:06;96407.38;;;12.69;72.60
14689;BME280;7432;48.728;9.154;2022-11-03T09:26:33;96401.25;;;12.47;73.33
14689;BME280;7432;48.728;9.154;2022-11-03T09:28:59;96398.22;;;12.44;74.29
14689;BME280;7432;48.728;9.154;2022-11-03T09:31:25;96392.16;;;12.74;73.57
14689;BME280;7432;48.728;9.154;2022-11-03T09:33:53;96394.41;;;12.92;73.14
14689;BME280;7432;48.728;9.154;2022-11-03T09:36:20;96385.94;;;12.98;73.05
14689;BME280;7432;48.728;9.154;2022-11-03T09:38:46;96391.69;;;13.08;72.57
14689;BME280;7432;48.728;9.154;2022-11-03T09:41:14;96391.69;;;13.08;72.69
14689;BME280;7432;48.728;9.154;2022-11-03T09:43:43;96383.91;;;13.23;71.91
14689;BME280;7432;48.728;9.154;2022-11-03T09:46:09;96384.97;;;13.28;72.17
14689;BME280;7432;48.728;9.154;2022-11-03T09:48:36;96385.63;;;13.30;71.76
14689;BME280;7432;48.728;9.154;2022-11-03T09:51:02;96376.25;;;13.29;70.59
14689;BME280;7432;48.728;9.154;2022-11-03T09:53:29;96382.50;;;13.35;71.14
14689;BME280;7432;48.728;9.154;2022-11-03T09:55:56;96352.72;;;13.24;70.77
14689;BME280;7432;48.728;9.154;2022-11-03T09:58:25;96376.66;;;13.47;71.58
14689;BME280;7432;48.728;9.154;2022-11-03T10:00:51;96365.72;;;13.45;71.83
14689;BME280;7432;48.728;9.154;2022-11-03T10:03:17;96361.34;;;13.46;71.71
14689;BME280;7432;48.728;9.154;2022-11-03T10:05:45;96358.66;;;13.39;72.40
14689;BME280;7432;48.728;9.154;2022-11-03T10:08:19;96353.75;;;13.44;71.46
14689;BME280;7432;48.728;9.154;2022-11-03T10:10:47;96350.75;;;13.41;72.47
14689;BME280;7432;48.728;9.154;2022-11-03T10:13:20;96348.06;;;13.20;72.23
14689;BME280;7432;48.728;9.154;2022-11-03T10:15:49;96349.53;;;13.07;72.47
14689;BME280;7432;48.728;9.154;2022-11-03T10:18:16;96349.38;;;13.01;73.20
14689;BME280;7432;48.728;9.154;2022-11-03T10:20:43;96345.00;;;12.87;73.48
14689;BME280;7432;48.728;9.154;2022-11-03T10:23:09;96347.59;;;13.01;74.90
14689;BME280;7432;48.728;9.154;2022-11-03T10:25:37;96343.41;;;13.00;73.86
14689;BME280;7432;48.728;9.154;2022-11-03T10:28:14;96335.22;;;12.97;73.19
14689;BME280;7432;48.728;9.154;2022-11-03T10:30:51;96331.38;;;12.93;73.61
14689;BME280;7432;48.728;9.154;2022-11-03T10:33:28;96325.06;;;12.95;73.21
14689;BME280;7432;48.728;9.154;2022-11-03T10:35:56;96327.47;;;12.97;73.56
14689;BME280;7432;48.728;9.154;2022-11-03T10:38:28;96320.44;;;12.91;74.34
14689;BME280;7432;48.728;9.154;2022-11-03T10:40:56;96320.16;;;12.86;74.65
14689;BME280;7432;48.728;9.154;2022-11-03T10:43:22;96310.53;;;12.80;74.60
14689;BME280;7432;48.728;9.154;2022-11-03T10:46:08;96306.44;;;12.85;75.18
14689;BME280;7432;48.728;9.154;2022-11-03T10:48:35;96300.03;;;12.81;74.61
14689;BME280;7432;48.728;9.154;2022-11-03T10:51:02;96294.31;;;12.86;74.89
14689;BME280;7432;48.728;9.154;2022-11-03T10:53:29;96293.53;;;13.00;74.68
14689;BME280;7432;48.728;9.154;2022-11-03T10:55:56;96289.16;;;13.15;73.42
14689;BME280;7432;48.728;9.154;2022-11-03T10:58:23;96286.91;;;13.27;73.45
14689;BME280;7432;48.728;9.154;2022-11-03T11:00:51;96287.50;;;13.29;73.72
14689;BME280;7432;48.728;9.154;2022-11-03T11:03:17;96290.34;;;13.48;73.78
14689;BME280;7432;48.728;9.154;2022-11-03T11:05:45;96286.91;;;13.62;72.35
14689;BME280;7432;48.728;9.154;2022-11-03T11:08:12;96278.81;;;13.72;71.25
14689;BME280;7432;48.728;9.154;2022-11-03T11:10:42;96268.97;;;13.61;71.19
14689;BME280;7432;48.728;9.154;2022-11-03T11:13:26;96259.16;;;13.56;71.16
14689;BME280;7432;48.728;9.154;2022-11-03T11:15:55;96252.50;;;13.47;71.63
14689;BME280;7432;48.728;9.154;2022-11-03T11:21:49;96238.63;;;13.34;72.14
14689;BME280;7432;48.728;9.154;2022-11-03T11:27:56;96234.13;;;13.06;71.63
14689;BME280;7432;48.728;9.154;2022-11-03T11:30:57;96231.66;;;12.98;71.69
14689;BME280;7432;48.728;9.154;2022-11-03T11:33:25;96227.81;;;13.09;72.15
14689;BME280;7432;48.728;9.154;2022-11-03T11:38:56;96213.41;;;13.36;72.34
14689;BME280;7432;48.728;9.154;2022-11-03T11:44:50;96203.72;;;13.65;71.04
14689;BME280;7432;48.728;9.154;2022-11-03T11:47:23;96198.22;;;13.75;71.55
14689;BME280;7432;48.728;9.154;2022-11-03T11:50:01;96195.25;;;13.78;70.70
14689;BME280;7432;48.728;9.154;2022-11-03T11:52:40;96198.41;;;13.31;72.04
14689;BME280;7432;48.728;9.154;2022-11-03T11:55:15;96189.13;;;13.16;72.84
14689;BME280;7432;48.728;9.154;2022-11-03T11:57:43;96181.94;;;12.96;73.56
14689;BME280;7432;48.728;9.154;2022-11-03T12:00:18;96179.69;;;12.93;74.60
14689;BME280;7432;48.728;9.154;2022-11-03T12:02:46;96178.59;;;12.81;74.93
14689;BME280;7432;48.728;9.154;2022-11-03T12:05:18;96168.03;;;12.97;74.88
14689;BME280;7432;48.728;9.154;2022-11-03T12:07:45;96156.78;;;12.90;75.45
14689;BME280;7432;48.728;9.154;2022-11-03T12:10:14;96159.22;;;12.92;75.25
14689;BME280;7432;48.728;9.154;2022-11-03T12:12:41;96147.66;;;12.73;75.63
14689;BME280;7432;48.728;9.154;2022-11-03T12:18:34;96141.34;;;12.76;75.88
14689;BME280;7432;48.728;9.154;2022-11-03T12:21:02;96128.69;;;12.81;76.69
14689;BME280;7432;48.728;9.154;2022-11-03T12:23:40;96130.44;;;12.95;76.18
14689;BME280;7432;48.728;9.154;2022-11-03T12:26:15;96122.91;;;13.00;76.54
14689;BME280;7432;48.728;9.154;2022-11-03T12:28:42;96119.69;;;12.98;76.98
14689;BME280;7432;48.728;9.154;2022-11-03T12:31:09;96116.19;;;12.84;77.94
14689;BME280;7432;48.728;9.154;2022-11-03T12:33:37;96112.03;;;12.69;79.18
14689;BME280;7432;48.728;9.154;2022-11-03T12:36:03;96102.63;;;12.61;80.51
14689;BME280;7432;48.728;9.154;2022-11-03T12:38:30;96099.69;;;12.64;79.57
14689;BME280;7432;48.728;9.154;2022-11-03T12:40:56;96095.97;;;12.73;79.61
14689;BME280;7432;48.728;9.154;2022-11-03T12:43:43;96088.56;;;12.85;80.22
14689;BME280;7432;48.728;9.154;2022-11-03T12:46:09;96082.91;;;12.96;80.53
14689;BME280;7432;48.728;9.154;2022-11-03T12:48:37;96078.59;;;13.03;78.51
14689;BME280;7432;48.728;9.154;2022-11-03T12:51:08;96070.06;;;13.02;78.87
14689;BME280;7432;48.728;9.154;2022-11-03T12:53:34;96070.22;;;13.01;78.73
14689;BME280;7432;48.728;9.154;2022-11-03T12:56:00;96061.25;;;12.97;79.27
14689;BME280;7432;48.728;9.154;2022-11-03T12:58:27;96058.47;;;12.98;79.55
14689;BME280;7432;48.728;9.154;2022-11-03T13:00:53;96056.06;;;12.97;78.69
14689;BME280;7432;48.728;9.154;2022-11-03T13:03:20;96049.13;;;12.97;78.32
14689;BME280;7432;48.728;9.154;2022-11-03T13:05:47;96049.25;;;12.89;78.51
14689;BME280;7432;48.728;9.154;2022-11-03T13:08:14;96035.09;;;12.85;79.00
14689;BME280;7432;48.728;9.154;2022-11-03T13:10:40;96030.91;;;12.84;78.71
14689;BME280;7432;48.728;9.154;2022-11-03T13:13:07;96020.56;;;12.84;78.49
14689;BME280;7432;48.728;9.154;2022-11-03T13:15:33;96016.41;;;12.83;78.43
14689;BME280;7432;48.728;9.154;2022-11-03T13:17:59;96012.03;;;12.84;78.76
14689;BME280;7432;48.728;9.154;2022-11-03T13:20:26;96000.53;;;12.86;78.09
14689;BME280;7432;48.728;9.154;2022-11-03T13:22:54;95998.84;;;12.79;78.11
14689;BME280;7432;48.728;9.154;2022-11-03T13:25:20;95989.16;;;12.81;77.85
14689;BME280;7432;48.728;9.154;2022-11-03T13:27:48;95982.81;;;12.83;77.42
14689;BME280;7432;48.728;9.154;2022-11-03T13:30:18;95975.66;;;12.85;78.32
14689;BME280;7432;48.728;9.154;2022-11-03T13:32:45;95974.91;;;12.91;78.68
14689;BME280;7432;48.728;9.154;2022-11-03T13:35:11;95966.38;;;12.91;79.18
14689;BME280;7432;48.728;9.154;2022-11-03T13:37:38;95960.44;;;12.97;78.55
14689;BME280;7432;48.728;9.154;2022-11-03T13:40:07;95947.69;;;12.95;78.84
14689;BME280;7432;48.728;9.154;2022-11-03T13:42:34;95948.06;;;12.92;79.33